Time;durP1;ratioP1;P1;durP2;ratioP2;P2;SDS_P1;SDS_P2;PMS_P1;PMS_P2;Temp;Humidity;BMP_temperature;BMP_pressure;BME280_temperature;BME280_humidity;BME280_pressure;Samples;Min_cycle;Max_cycle;Signal;HPM_P1;HPM_P2
2023/06/11 00:01:24;;;;;;;4.72;2.72;;;;;;;21.73;68.20;98362.13;5016294;28;20041;-45
2023/06/11 00:03:52;;;;;;;6.63;3.38;;;;;;;21.68;67.81;98370.16;5015962;28;20511;-45
2023/06/11 00:06:22;;;;;;;6.63;3.70;;;;;;;21.60;68.14;98368.09;5014358;28;20026;-45
2023/06/11 00:08:52;;;;;;;5.82;2.75;;;;;;;21.60;68.29;98361.97;4996510;28;20076;-45
2023/06/11 00:11:18;;;;;;;7.70;2.92;;;;;;;21.57;68.25;98357.19;4996484;28;20495;-45
2023/06/11 00:13:44;;;;;;;5.13;3.05;;;;;;;21.52;68.42;98363.38;5014077;28;20030;-45
2023/06/11 00:16:12;;;;;;;8.80;3.03;;;;;;;21.43;68.51;98352.50;5014012;28;20506;-45
2023/06/11 00:18:40;;;;;;;7.72;2.95;;;;;;;21.32;68.40;98364.28;4996394;28;20113;-46
2023/06/11 00:21:14;;;;;;;14.52;3.42;;;;;;;21.16;69.04;98360.94;5014159;28;20022;-45
2023/06/11 00:23:39;;;;;;;222.35;15.10;;;;;;;21.06;69.63;98361.78;5014074;28;20025;-45
2023/06/11 00:26:07;;;;;;;164.98;12.48;;;;;;;21.06;69.96;98361.78;4996240;28;20538;-45
2023/06/11 00:28:33;;;;;;;46.67;5.25;;;;;;;21.04;70.20;98363.94;4996215;28;20121;-45
2023/06/11 00:31:00;;;;;;;48.30;4.45;;;;;;;20.98;70.38;98362.38;5013719;28;20176;-45
2023/06/11 00:33:27;;;;;;;22.33;3.75;;;;;;;21.00;70.70;98364.78;4996036;28;20038;-45
2023/06/11 00:35:53;;;;;;;13.02;3.50;;;;;;;20.93;71.17;98362.44;4980105;28;20097;-45
2023/06/11 00:38:19;;;;;;;13.93;3.90;;;;;;;20.98;70.86;98358.94;4995983;28;20116;-45
2023/06/11 00:40:46;;;;;;;8.05;3.35;;;;;;;21.03;70.92;98358.91;5013464;28;20108;-45
2023/06/11 00:43:11;;;;;;;5.40;3.47;;;;;;;20.98;70.87;98359.72;4995800;28;20504;-45
2023/06/11 00:45:37;;;;;;;5.25;3.33;;;;;;;20.98;70.52;98356.25;5013515;28;20029;-45
2023/06/11 00:48:03;;;;;;;9.63;3.40;;;;;;;20.85;71.02;98358.47;4995842;28;20561;-45
2023/06/11 00:50:29;;;;;;;13.30;3.33;;;;;;;20.77;71.86;98359.03;4995854;28;20101;-45
2023/06/11 00:52:55;;;;;;;6.15;2.92;;;;;;;20.80;71.72;98349.69;4995687;28;20026;-45
2023/06/11 00:55:21;;;;;;;5.28;3.08;;;;;;;20.80;71.70;98355.03;5013250;28;20076;-45
2023/06/11 00:57:48;;;;;;;14.27;3.85;;;;;;;20.71;71.90;98358.28;5013298;28;20026;-45
2023/06/11 01:00:14;;;;;;;5.43;3.30;;;;;;;20.79;72.30;98364.91;4979645;28;20104;-45
2023/06/11 01:02:49;;;;;;;9.70;3.53;;;;;;;20.88;71.95;98363.22;5012904;28;20049;-45
2023/06/11 01:05:21;;;;;;;9.07;2.90;;;;;;;20.98;71.91;98359.72;5013113;28;20030;-45
2023/06/11 01:07:51;;;;;;;7.53;3.40;;;;;;;21.04;71.08;98365.81;5013360;28;20487;-45
2023/06/11 01:10:20;;;;;;;462.77;34.28;;;;;;;20.87;71.39;98367.00;5013278;28;20036;-45
2023/06/11 01:12:46;;;;;;;1999.90;196.38;;;;;;;20.71;71.75;98363.59;4995319;28;20182;-45
2023/06/11 01:15:13;;;;;;;266.80;20.30;;;;;;;20.73;71.80;98372.13;4994781;28;20116;-45
2023/06/11 01:18:00;;;;;;;605.85;43.75;;;;;;;20.74;72.00;98368.41;5012825;28;20484;-45
2023/06/11 01:20:49;;;;;;;208.75;23.25;;;;;;;20.85;71.83;98363.81;4996259;28;20028;-45
2023/06/11 01:23:50;;;;;;;159.35;18.05;;;;;;;20.98;70.97;98366.94;5012711;28;20026;-46
2023/06/11 01:26:34;;;;;;;63.25;7.25;;;;;;;20.92;71.01;98366.16;4975056;28;20045;-45
2023/06/11 01:29:03;;;;;;;34.70;5.43;;;;;;;21.03;70.99;98364.25;5012818;28;20118;-45
2023/06/11 01:31:37;;;;;;;52.92;8.15;;;;;;;21.15;70.34;98365.47;5012629;28;20056;-45
2023/06/11 01:34:04;;;;;;;24.38;4.53;;;;;;;20.98;70.17;98366.94;5012697;28;20030;-45
2023/06/11 01:36:34;;;;;;;15.20;3.95;;;;;;;20.96;70.68;98369.88;4994851;28;20034;-45
2023/06/11 01:39:01;;;;;;;22.50;4.65;;;;;;;20.98;70.65;98365.06;5012584;28;20519;-45
2023/06/11 01:41:27;;;;;;;17.90;3.83;;;;;;;20.82;70.54;98364.34;5012701;28;20176;-45
2023/06/11 01:43:53;;;;;;;14.40;3.50;;;;;;;20.72;71.26;98367.06;5012597;28;20555;-45
2023/06/11 01:46:19;;;;;;;13.40;3.58;;;;;;;20.75;71.18;98361.97;4994774;28;20534;-45
2023/06/11 01:48:44;;;;;;;17.00;3.35;;;;;;;20.81;71.28;98354.75;5012655;28;20033;-45
2023/06/11 01:51:14;;;;;;;13.65;3.83;;;;;;;20.82;70.91;98364.34;5012567;28;20384;-45
2023/06/11 01:53:40;;;;;;;11.07;3.30;;;;;;;20.79;71.36;98370.25;5012347;28;20060;-45
2023/06/11 01:56:06;;;;;;;12.25;3.30;;;;;;;20.87;71.29;98371.53;4994900;28;20021;-45
2023/06/11 01:58:32;;;;;;;14.77;4.20;;;;;;;20.91;71.00;98365.38;4994603;28;20038;-45
2023/06/11 02:00:58;;;;;;;12.50;3.75;;;;;;;20.88;70.84;98365.13;5012138;28;20026;-45
2023/06/11 02:03:24;;;;;;;7.20;3.17;;;;;;;20.90;70.86;98369.09;5011929;28;20042;-45
2023/06/11 02:05:50;;;;;;;7.45;3.47;;;;;;;20.80;70.83;98369.16;5012023;28;20026;-45
2023/06/11 02:08:15;;;;;;;17.52;3.88;;;;;;;20.71;71.02;98368.16;4994455;28;20041;-45
2023/06/11 02:10:43;;;;;;;11.32;3.30;;;;;;;20.77;71.11;98366.25;5012136;28;20519;-45
2023/06/11 02:13:09;;;;;;;12.98;3.90;;;;;;;20.63;71.12;98372.19;5012018;28;20400;-45
2023/06/11 02:15:35;;;;;;;5.65;2.83;;;;;;;20.70;71.69;98367.31;5012083;28;20033;-45
2023/06/11 02:18:01;;;;;;;9.15;3.60;;;;;;;20.69;71.18;98372.97;5012082;28;20022;-46
2023/06/11 02:20:27;;;;;;;10.00;4.05;;;;;;;20.55;71.52;98370.84;4994434;28;20845;-45
2023/06/11 02:22:53;;;;;;;12.55;3.20;;;;;;;20.60;72.37;98372.72;4994346;28;20029;-45
2023/06/11 02:25:18;;;;;;;10.63;3.63;;;;;;;20.58;72.05;98372.16;4994345;28;20026;-45
2023/06/11 02:27:44;;;;;;;6.47;3.30;;;;;;;20.53;71.80;98380.97;4997222;28;20538;-45
2023/06/11 02:30:10;;;;;;;9.43;3.08;;;;;;;20.51;71.97;98375.13;5015954;28;20113;-46
2023/06/11 02:32:36;;;;;;;11.18;3.70;;;;;;;20.49;72.29;98371.94;5016049;28;20391;-45
2023/06/11 02:35:02;;;;;;;9.63;3.60;;;;;;;20.53;72.33;98372.97;5015834;28;20109;-45
2023/06/11 02:37:27;;;;;;;9.43;3.80;;;;;;;20.49;72.28;98374.59;4998190;28;20026;-45
2023/06/11 02:39:53;;;;;;;5.97;3.20;;;;;;;20.53;72.55;98380.19;4998190;28;20527;-45
2023/06/11 02:42:18;;;;;;;5.88;3.00;;;;;;;20.61;72.70;98379.66;5015747;28;20044;-45
2023/06/11 02:44:44;;;;;;;9.02;3.53;;;;;;;20.87;73.00;98383.00;4998084;28;20026;-45
2023/06/11 02:47:10;;;;;;;8.55;3.53;;;;;;;21.20;72.41;98374.53;4998310;28;20033;-45
2023/06/11 02:49:35;;;;;;;10.48;3.60;;;;;;;21.52;71.29;98382.84;5015708;28;20052;-46
2023/06/11 02:52:01;;;;;;;10.05;3.45;;;;;;;21.57;69.99;98379.38;5015687;28;20102;-45
2023/06/11 02:54:26;;;;;;;23.05;4.82;;;;;;;21.55;69.93;98373.50;4997943;28;20518;-45
2023/06/11 02:56:52;;;;;;;13.48;4.10;;;;;;;21.69;69.81;98368.28;4998021;28;20034;-45
2023/06/11 02:59:18;;;;;;;7.65;3.30;;;;;;;21.71;68.70;98379.47;4981706;28;20041;-45
2023/06/11 03:01:43;;;;;;;13.02;3.67;;;;;;;21.42;68.19;98374.91;4997619;28;20032;-45
2023/06/11 03:04:09;;;;;;;8.88;3.20;;;;;;;21.29;70.01;98371.00;4997695;28;20395;-45
2023/06/11 03:06:35;;;;;;;14.35;4.03;;;;;;;21.65;69.95;98375.28;4997708;28;20030;-45
2023/06/11 03:09:00;;;;;;;17.45;4.80;;;;;;;22.07;68.86;98377.28;4997646;28;20030;-45
2023/06/11 03:11:26;;;;;;;10.02;2.90;;;;;;;22.41;67.92;98375.59;5015304;28;20156;-45
2023/06/11 03:13:52;;;;;;;10.27;2.97;;;;;;;22.55;66.60;98379.19;4981387;28;20064;-45
2023/06/11 03:16:17;;;;;;;7.93;3.28;;;;;;;22.49;66.24;98381.13;5015399;28;20026;-45
2023/06/11 03:18:43;;;;;;;11.73;3.95;;;;;;;22.42;66.56;98383.34;4997597;28;20495;-45
2023/06/11 03:21:10;;;;;;;10.23;3.45;;;;;;;22.42;66.36;98378.00;5015071;28;20037;-45
2023/06/11 03:23:35;;;;;;;13.15;4.22;;;;;;;22.46;66.49;98380.91;5014913;28;20045;-45
2023/06/11 03:26:01;;;;;;;10.88;3.50;;;;;;;22.60;66.18;98381.00;4997320;28;20482;-45
2023/06/11 03:28:27;;;;;;;10.52;3.35;;;;;;;22.70;65.68;98372.84;5014943;28;20022;-45
2023/06/11 03:30:53;;;;;;;7.10;3.17;;;;;;;22.78;65.65;98371.41;5014768;28;20030;-45
2023/06/11 03:33:18;;;;;;;8.02;3.25;;;;;;;22.86;64.87;98379.59;5014805;28;20033;-45
2023/06/11 03:35:44;;;;;;;5.25;2.88;;;;;;;22.90;64.63;98374.47;5014824;28;20030;-45
2023/06/11 03:38:10;;;;;;;10.07;3.05;;;;;;;22.94;64.40;98376.28;4996665;28;20408;-45
2023/06/11 03:40:36;;;;;;;18.65;3.25;;;;;;;23.01;64.59;98372.44;5014761;28;20049;-45
2023/06/11 03:43:01;;;;;;;8.48;3.55;;;;;;;23.08;63.89;98372.88;5014635;28;20022;-45
2023/06/11 03:45:27;;;;;;;11.10;2.83;;;;;;;23.05;63.76;98373.47;4980805;28;20025;-45
2023/06/11 03:47:55;;;;;;;5.30;2.67;;;;;;;23.03;63.86;98371.09;5014504;28;20030;-45
2023/06/11 03:50:22;;;;;;;10.35;2.70;;;;;;;23.04;63.81;98378.03;5014475;28;20028;-45
2023/06/11 03:52:48;;;;;;;6.85;2.65;;;;;;;23.01;63.88;98375.13;5014694;28;20014;-45
2023/06/11 03:55:14;;;;;;;5.28;3.03;;;;;;;22.93;63.79;98373.88;4996889;28;20040;-45
2023/06/11 03:57:40;;;;;;;8.75;3.33;;;;;;;22.85;63.95;98375.31;4996754;28;20033;-45
2023/06/11 04:00:06;;;;;;;8.65;3.08;;;;;;;22.76;63.63;98379.72;5014354;28;20030;-45
2023/06/11 04:02:32;;;;;;;8.30;2.95;;;;;;;22.64;64.44;98377.47;5014078;28;20100;-46
2023/06/11 04:04:58;;;;;;;8.80;3.20;;;;;;;22.54;64.34;98374.94;5014178;28;20030;-45
2023/06/11 04:07:23;;;;;;;12.57;3.45;;;;;;;22.46;64.50;98379.03;5014207;28;20503;-45
2023/06/11 04:09:49;;;;;;;8.50;3.58;;;;;;;22.46;64.32;98375.56;4996563;28;20056;-45
2023/06/11 04:12:14;;;;;;;10.13;3.13;;;;;;;22.36;64.56;98373.81;4996472;28;20022;-45
2023/06/11 04:14:40;;;;;;;6.95;2.97;;;;;;;22.29;64.63;98379.47;4996416;28;20075;-45
2023/06/11 04:17:06;;;;;;;12.38;3.50;;;;;;;22.19;65.01;98376.09;5014038;28;20014;-45
2023/06/11 04:19:31;;;;;;;5.80;2.80;;;;;;;22.21;65.31;98380.06;5014018;28;20061;-45
2023/06/11 04:21:57;;;;;;;9.88;3.42;;;;;;;22.37;65.70;98371.91;4996256;28;20041;-46
2023/06/11 04:24:23;;;;;;;10.00;3.15;;;;;;;22.71;65.10;98385.94;4996516;28;20510;-45
2023/06/11 04:26:48;;;;;;;14.57;3.78;;;;;;;23.12;63.58;98379.28;5014083;28;20018;-45
2023/06/11 04:29:15;;;;;;;14.02;3.65;;;;;;;23.45;62.68;98382.78;5013860;28;20558;-45
2023/06/11 04:31:46;;;;;;;8.80;3.08;;;;;;;24.02;60.59;98379.94;5013955;28;20484;-45
2023/06/11 04:34:13;;;;;;;9.45;3.42;;;;;;;24.51;59.14;98383.88;4997078;28;20037;-45
2023/06/11 04:36:40;;;;;;;7.93;2.95;;;;;;;24.33;58.79;98382.06;4996106;28;20026;-45
2023/06/11 04:39:07;;;;;;;15.00;3.50;;;;;;;23.97;59.95;98382.75;5013563;28;20022;-45
2023/06/11 04:41:36;;;;;;;7.63;3.00;;;;;;;23.97;60.52;98385.41;4995991;28;20026;-45
2023/06/11 04:44:05;;;;;;;9.25;3.35;;;;;;;24.27;60.14;98376.00;5013405;28;20033;-45
2023/06/11 04:46:34;;;;;;;6.43;3.00;;;;;;;24.55;59.20;98386.75;4995818;28;20140;-45
2023/06/11 04:49:00;;;;;;;7.15;3.20;;;;;;;24.65;58.24;98383.06;5012601;28;20029;-45
2023/06/11 04:51:32;;;;;;;8.00;3.42;;;;;;;24.78;58.38;98381.47;5013330;28;20022;-45
2023/06/11 04:54:01;;;;;;;13.13;3.35;;;;;;;25.39;57.36;98379.31;5013345;28;20041;-46
2023/06/11 04:56:27;;;;;;;5.47;2.55;;;;;;;25.76;56.05;98385.41;5013333;28;20032;-45
2023/06/11 04:58:53;;;;;;;7.80;3.08;;;;;;;25.82;55.52;98387.66;4995655;28;20121;-46
2023/06/11 05:01:20;;;;;;;11.70;3.47;;;;;;;25.84;55.11;98390.03;4995759;28;20029;-46
2023/06/11 05:03:46;;;;;;;8.50;3.08;;;;;;;25.81;55.28;98382.56;5014799;28;20418;-46
2023/06/11 05:06:13;;;;;;;11.93;3.10;;;;;;;25.82;55.14;98390.34;5013175;28;20130;-45
2023/06/11 05:08:39;;;;;;;18.90;3.67;;;;;;;25.80;55.01;98389.06;5013135;28;20529;-46
2023/06/11 05:11:04;;;;;;;23.35;3.92;;;;;;;25.90;54.98;98386.94;4995349;28;20064;-46
2023/06/11 05:13:30;;;;;;;12.38;2.95;;;;;;;26.07;54.56;98393.50;5013057;28;20030;-46
2023/06/11 05:15:57;;;;;;;13.18;3.90;;;;;;;26.21;53.95;98396.09;4995304;28;20026;-46
2023/06/11 05:18:26;;;;;;;15.35;3.58;;;;;;;26.23;53.70;98399.25;4995274;28;20192;-46
2023/06/11 05:20:53;;;;;;;431.95;27.48;;;;;;;26.34;53.58;98389.81;4979106;28;20030;-46
2023/06/11 05:23:21;;;;;;;1999.90;369.60;;;;;;;26.19;52.93;98395.59;4995114;28;20491;-46
2023/06/11 05:25:47;;;;;;;209.43;15.35;;;;;;;25.89;53.34;98396.06;5012673;28;20022;-46
2023/06/11 05:28:16;;;;;;;630.25;52.63;;;;;;;25.48;54.50;98390.91;5012750;28;20022;-45
2023/06/11 05:30:45;;;;;;;594.28;40.42;;;;;;;25.19;55.54;98399.34;4995032;28;20488;-45
2023/06/11 05:33:12;;;;;;;771.95;56.80;;;;;;;24.99;56.29;98396.03;5012983;28;20033;-46
2023/06/11 05:35:38;;;;;;;139.90;11.07;;;;;;;24.91;56.57;98404.78;4994948;28;20029;-46
2023/06/11 05:38:06;;;;;;;148.85;12.05;;;;;;;24.91;56.92;98394.84;5012581;28;20581;-45
2023/06/11 05:40:36;;;;;;;109.75;9.00;;;;;;;25.04;56.92;98385.16;5012582;28;20060;-45
2023/06/11 05:43:02;;;;;;;58.40;6.28;;;;;;;25.35;56.18;98386.38;5012485;28;20057;-45
2023/06/11 05:45:30;;;;;;;32.20;4.07;;;;;;;25.67;55.26;98391.50;4995096;28;20491;-45
2023/06/11 05:47:56;;;;;;;30.05;4.75;;;;;;;25.89;54.62;98384.50;5012642;28;20493;-45
2023/06/11 05:50:22;;;;;;;54.17;5.55;;;;;;;26.10;54.05;98384.81;4994732;28;20117;-45
2023/06/11 05:52:48;;;;;;;24.45;3.50;;;;;;;26.38;52.93;98384.56;4994653;28;20037;-45
2023/06/11 05:55:14;;;;;;;18.05;3.63;;;;;;;26.93;51.96;98396.78;4994607;28;20034;-45
2023/06/11 05:57:40;;;;;;;18.48;3.72;;;;;;;27.77;49.71;98392.78;5012277;28;20029;-45
2023/06/11 06:00:07;;;;;;;25.02;4.22;;;;;;;29.54;45.99;98387.66;5012394;28;20459;-45
2023/06/11 06:02:33;;;;;;;5.82;2.75;;;;;;;31.06;42.43;98383.22;5011985;28;20037;-45
2023/06/11 06:04:58;;;;;;;3.63;2.33;;;;;;;32.32;38.92;98383.81;4994469;28;20026;-45
2023/06/11 06:07:24;;;;;;;6.25;2.72;;;;;;;33.31;37.64;98386.38;4994461;28;20037;-45
2023/06/11 06:09:50;;;;;;;6.53;2.83;;;;;;;34.03;35.60;98381.06;4994519;28;20065;-46
2023/06/11 06:12:16;;;;;;;8.75;3.30;;;;;;;33.85;35.26;98382.72;5012016;28;20084;-46
2023/06/11 06:14:41;;;;;;;12.32;3.28;;;;;;;32.89;36.78;98382.38;5012342;28;20112;-45
2023/06/11 06:17:07;;;;;;;14.30;3.20;;;;;;;31.77;38.01;98397.19;4994440;28;20033;-46
2023/06/11 06:19:33;;;;;;;12.25;2.95;;;;;;;30.99;39.79;98394.66;4994379;28;20025;-45
2023/06/11 06:21:58;;;;;;;9.65;3.08;;;;;;;30.36;40.94;98397.75;4994330;28;20030;-45
2023/06/11 06:24:24;;;;;;;13.02;3.15;;;;;;;29.79;42.28;98409.41;4994205;28;20036;-45
2023/06/11 06:26:51;;;;;;;7.35;2.97;;;;;;;29.34;43.22;98404.69;4994269;28;20026;-45
2023/06/11 06:29:17;;;;;;;14.73;3.47;;;;;;;28.80;44.11;98403.50;5011936;28;20026;-45
2023/06/11 06:31:43;;;;;;;17.75;3.78;;;;;;;28.29;45.53;98408.81;4994306;28;20109;-46
2023/06/11 06:34:08;;;;;;;13.43;3.47;;;;;;;28.04;46.82;98407.78;4994252;28;20450;-45
2023/06/11 06:36:35;;;;;;;18.40;4.32;;;;;;;27.98;47.50;98403.69;4994220;28;20034;-45
2023/06/11 06:39:01;;;;;;;13.05;3.03;;;;;;;28.07;47.00;98415.25;5011823;28;20566;-46
2023/06/11 06:41:28;;;;;;;15.82;3.63;;;;;;;28.09;47.43;98406.81;5011731;28;20050;-46
2023/06/11 06:43:54;;;;;;;11.57;3.10;;;;;;;28.09;47.07;98415.72;4994075;28;20030;-46
2023/06/11 06:46:20;;;;;;;6.70;2.80;;;;;;;28.01;47.41;98410.34;5011828;28;20030;-45
2023/06/11 06:48:45;;;;;;;7.82;2.75;;;;;;;27.82;47.86;98416.09;4994056;28;20018;-45
2023/06/11 06:51:11;;;;;;;14.18;3.85;;;;;;;27.67;47.92;98415.47;4994044;28;20033;-46
2023/06/11 06:53:36;;;;;;;6.78;2.83;;;;;;;27.64;48.39;98418.03;5011686;28;20108;-45
2023/06/11 06:56:05;;;;;;;10.45;3.63;;;;;;;27.70;48.37;98417.53;5011627;28;20499;-45
2023/06/11 06:58:32;;;;;;;8.85;3.63;;;;;;;27.65;48.27;98425.78;5011604;28;20018;-46
2023/06/11 07:00:58;;;;;;;24.85;5.63;;;;;;;27.93;48.60;98422.75;4994109;28;20022;-45
2023/06/11 07:03:23;;;;;;;7.13;3.10;;;;;;;30.76;43.40;98415.22;5011375;28;20045;-45
2023/06/11 07:05:49;;;;;;;15.18;3.45;;;;;;;33.61;37.66;98411.84;5011469;28;20125;-46
2023/06/11 07:08:15;;;;;;;5.28;2.95;;;;;;;35.69;33.96;98414.09;5011570;28;20026;-46
2023/06/11 07:10:42;;;;;;;12.45;3.80;;;;;;;36.91;31.68;98415.06;5011558;28;20030;-46
2023/06/11 07:13:11;;;;;;;8.25;2.70;;;;;;;37.65;30.04;98404.00;5013446;28;20107;-46
2023/06/11 07:15:37;;;;;;;4.28;2.97;;;;;;;37.97;29.23;98406.78;4997528;28;20037;-46
2023/06/11 07:18:02;;;;;;;11.50;3.08;;;;;;;38.48;28.51;98408.34;4997550;28;20434;-46
2023/06/11 07:20:28;;;;;;;6.45;2.80;;;;;;;38.88;27.31;98413.78;4997459;28;20034;-46
2023/06/11 07:22:54;;;;;;;9.88;3.38;;;;;;;39.14;26.74;98407.81;4997318;28;20468;-46
2023/06/11 07:25:19;;;;;;;6.60;2.90;;;;;;;39.24;26.88;98405.38;4997410;28;20121;-46
2023/06/11 07:27:45;;;;;;;4.82;2.38;;;;;;;39.65;26.16;98408.31;5014992;28;20014;-46
2023/06/11 07:30:11;;;;;;;7.15;2.50;;;;;;;39.49;26.34;98408.03;4997314;28;20426;-46
2023/06/11 07:32:37;;;;;;;8.00;2.80;;;;;;;39.03;26.91;98409.03;4997283;28;20030;-46
2023/06/11 07:35:03;;;;;;;5.18;2.38;;;;;;;38.91;27.34;98407.47;5014891;28;20496;-46
2023/06/11 07:37:29;;;;;;;8.00;2.97;;;;;;;39.11;26.84;98407.81;4997207;28;20055;-46
2023/06/11 07:39:55;;;;;;;9.65;2.80;;;;;;;39.11;26.78;98403.09;5014793;28;20120;-46
2023/06/11 07:42:20;;;;;;;8.90;3.53;;;;;;;38.64;27.14;98407.94;5014790;28;20022;-47
2023/06/11 07:44:46;;;;;;;3.95;2.78;;;;;;;38.52;27.56;98405.63;4997017;28;20081;-46
2023/06/11 07:47:11;;;;;;;7.63;3.10;;;;;;;39.27;26.76;98401.84;4996982;28;20029;-46
2023/06/11 07:49:37;;;;;;;7.85;3.10;;;;;;;40.53;25.48;98396.25;5014576;28;20036;-47
2023/06/11 07:52:03;;;;;;;6.10;2.40;;;;;;;40.92;24.77;98395.81;4997041;28;20101;-46
2023/06/11 07:54:29;;;;;;;7.53;3.38;;;;;;;41.39;24.31;98397.97;4980710;28;20045;-46
2023/06/11 07:56:55;;;;;;;11.43;3.30;;;;;;;42.23;23.43;98395.53;5014357;28;20108;-47
2023/06/11 07:59:21;;;;;;;4.57;2.53;;;;;;;41.13;24.12;98399.47;4996818;28;20036;-46
2023/06/11 08:01:47;;;;;;;4.82;2.58;;;;;;;41.79;23.44;98395.44;4996711;28;20026;-47
2023/06/11 08:04:12;;;;;;;5.47;2.92;;;;;;;42.73;22.13;98391.09;5014084;28;20088;-46
2023/06/11 08:06:38;;;;;;;4.28;2.13;;;;;;;43.58;21.39;98390.47;4996627;28;20041;-49
2023/06/11 08:09:04;;;;;;;6.97;2.70;;;;;;;43.77;21.32;98381.38;5014243;28;20592;-49
2023/06/11 08:11:29;;;;;;;6.00;2.50;;;;;;;43.82;20.78;98377.31;5014188;28;20088;-49
2023/06/11 08:13:55;;;;;;;5.00;2.65;;;;;;;43.91;20.88;98391.31;5014087;28;20431;-49
2023/06/11 08:16:21;;;;;;;8.93;3.17;;;;;;;43.64;20.97;98383.22;5014071;28;20554;-48
2023/06/11 08:18:46;;;;;;;6.25;2.40;;;;;;;42.95;21.65;98380.41;5014053;28;20092;-48
2023/06/11 08:21:12;;;;;;;14.45;3.03;;;;;;;42.02;22.20;98372.66;4996383;28;20071;-48
2023/06/11 08:23:39;;;;;;;7.55;2.65;;;;;;;40.43;24.08;98377.88;5013844;28;20576;-48
2023/06/11 08:26:05;;;;;;;12.75;2.78;;;;;;;40.66;23.89;98383.50;4996266;28;20506;-48
2023/06/11 08:28:31;;;;;;;5.90;2.28;;;;;;;40.89;23.46;98379.34;4980223;28;20450;-49
2023/06/11 08:30:57;;;;;;;5.20;1.77;;;;;;;41.08;23.61;98375.94;4996216;28;20037;-48
2023/06/11 08:33:23;;;;;;;9.68;2.65;;;;;;;41.75;23.05;98372.66;5013756;28;20396;-48
2023/06/11 08:35:49;;;;;;;9.60;2.67;;;;;;;42.77;21.87;98367.72;4996159;28;20495;-49
2023/06/11 08:38:15;;;;;;;6.03;2.50;;;;;;;43.82;20.74;98367.00;5013570;28;20037;-49
2023/06/11 08:40:41;;;;;;;5.57;2.17;;;;;;;44.12;20.61;98361.56;5013508;28;20088;-49
2023/06/11 08:43:08;;;;;;;9.15;2.90;;;;;;;44.69;20.42;98370.31;4995874;28;20030;-49
2023/06/11 08:45:34;;;;;;;8.93;2.40;;;;;;;45.31;19.60;98370.09;5013508;28;20384;-49
2023/06/11 08:48:04;;;;;;;13.93;3.20;;;;;;;45.26;19.45;98363.13;4995820;28;20026;-49
2023/06/11 08:50:31;;;;;;;8.68;2.47;;;;;;;45.14;19.46;98355.53;5013423;28;20404;-49
2023/06/11 08:53:00;;;;;;;7.18;2.35;;;;;;;45.42;19.12;98354.69;4995777;28;20033;-49
2023/06/11 08:55:27;;;;;;;5.75;2.47;;;;;;;44.05;20.35;98362.47;5013523;28;20106;-49
2023/06/11 08:57:53;;;;;;;3.90;2.63;;;;;;;42.84;21.48;98361.28;5013396;28;20029;-49
2023/06/11 09:00:19;;;;;;;4.05;2.10;;;;;;;43.08;21.77;98359.22;4995602;28;20415;-49
2023/06/11 09:02:45;;;;;;;6.30;2.00;;;;;;;43.46;20.86;98354.03;4998754;28;20081;-49
2023/06/11 09:05:11;;;;;;;5.25;2.33;;;;;;;42.84;21.23;98351.03;5011906;28;20124;-48
2023/06/11 09:07:37;;;;;;;5.70;2.47;;;;;;;41.62;22.56;98352.44;5013128;28;20025;-49
2023/06/11 09:10:05;;;;;;;10.43;2.10;;;;;;;42.23;21.90;98359.69;4995504;28;20087;-48
2023/06/11 09:12:31;;;;;;;4.55;2.35;;;;;;;43.34;21.48;98357.47;4995435;28;20029;-48
2023/06/11 09:14:56;;;;;;;5.63;2.78;;;;;;;44.11;20.54;98355.22;5011762;28;20029;-48
2023/06/11 09:17:22;;;;;;;6.32;2.22;;;;;;;44.01;20.42;98357.06;5012961;28;20018;-48
2023/06/11 09:19:48;;;;;;;6.82;2.30;;;;;;;43.42;20.51;98355.31;5012955;28;20060;-48
2023/06/11 09:22:14;;;;;;;6.68;2.28;;;;;;;43.99;20.11;98361.47;5012898;28;20041;-49
2023/06/11 09:24:40;;;;;;;10.60;3.00;;;;;;;44.32;19.80;98359.44;5012785;28;20026;-49
2023/06/11 09:27:06;;;;;;;3.70;2.25;;;;;;;43.36;20.43;98363.34;5011530;28;20048;-49
2023/06/11 09:29:34;;;;;;;5.53;2.60;;;;;;;43.29;21.02;98361.53;4995184;28;20553;-49
2023/06/11 09:32:08;;;;;;;6.38;2.65;;;;;;;44.06;20.40;98359.28;5013010;28;20030;-49
2023/06/11 09:34:34;;;;;;;19.77;5.97;;;;;;;44.69;19.23;98362.00;4995258;28;20503;-48
2023/06/11 09:37:03;;;;;;;9.95;3.13;;;;;;;43.76;20.14;98357.69;5010915;28;20527;-48
2023/06/11 09:39:30;;;;;;;3.97;2.67;;;;;;;43.67;20.07;98355.53;5011322;28;20879;-49
2023/06/11 09:41:56;;;;;;;6.95;2.47;;;;;;;44.41;19.28;98351.28;5012521;28;20014;-49
2023/06/11 09:44:23;;;;;;;5.28;2.65;;;;;;;43.28;20.01;98346.16;5011131;28;20120;-48
2023/06/11 09:46:50;;;;;;;4.32;2.05;;;;;;;41.95;21.35;98352.66;5012540;28;20511;-48
2023/06/11 09:49:16;;;;;;;4.60;2.20;;;;;;;41.34;22.54;98354.38;5011135;28;20558;-48
2023/06/11 09:51:43;;;;;;;12.95;2.97;;;;;;;40.85;22.74;98357.38;5012409;28;20026;-48
2023/06/11 09:54:10;;;;;;;5.72;2.28;;;;;;;41.36;22.28;98346.50;5012407;28;20113;-48
2023/06/11 09:56:37;;;;;;;8.93;2.33;;;;;;;40.79;22.58;98356.28;5011179;28;20018;-48
2023/06/11 09:59:04;;;;;;;4.85;1.92;;;;;;;41.25;22.42;98349.41;5012368;28;20056;-48
2023/06/11 10:01:31;;;;;;;5.10;2.25;;;;;;;41.23;22.25;98348.25;5012197;28;20080;-48
2023/06/11 10:04:01;;;;;;;14.80;2.90;;;;;;;40.39;23.06;98349.63;4997620;28;20141;-48
2023/06/11 10:06:35;;;;;;;10.52;2.70;;;;;;;40.85;22.71;98346.38;5031858;28;20033;-48
2023/06/11 10:09:06;;;;;;;4.45;2.03;;;;;;;41.97;21.67;98344.75;5031963;28;20576;-48
2023/06/11 10:11:40;;;;;;;6.03;1.95;;;;;;;43.09;21.25;98338.69;5031948;28;20132;-49
2023/06/11 10:14:17;;;;;;;7.45;2.35;;;;;;;43.90;20.19;98326.13;4998634;28;20376;-48
2023/06/11 10:16:54;;;;;;;8.55;1.80;;;;;;;43.26;20.51;98325.66;5014110;28;20072;-48
2023/06/11 10:19:22;;;;;;;10.00;3.10;;;;;;;41.77;21.69;98326.19;5031871;28;20389;-48
2023/06/11 10:21:51;;;;;;;8.05;2.70;;;;;;;40.30;23.25;98336.34;5031813;28;20026;-48
2023/06/11 10:24:24;;;;;;;11.07;2.92;;;;;;;40.67;23.07;98329.25;5031592;28;20068;-48
2023/06/11 10:27:10;;;;;;;4.93;2.05;;;;;;;40.37;23.38;98330.81;5032022;28;20403;-48
2023/06/11 10:29:49;;;;;;;4.88;2.40;;;;;;;40.49;23.44;98330.28;5031704;28;20029;-48
2023/06/11 10:32:20;;;;;;;16.83;3.95;;;;;;;41.63;22.52;98323.66;5013914;28;20087;-49
2023/06/11 10:34:57;;;;;;;12.43;2.20;;;;;;;42.88;21.41;98317.84;5031659;28;20026;-49
2023/06/11 10:37:28;;;;;;;10.43;2.00;;;;;;;43.71;19.73;98315.97;5013808;28;20474;-48
2023/06/11 10:39:54;;;;;;;6.75;2.10;;;;;;;42.62;20.39;98316.78;5031619;28;20026;-49
2023/06/11 10:42:40;;;;;;;4.07;2.20;;;;;;;42.11;21.29;98319.72;5031603;28;20076;-48
2023/06/11 10:45:11;;;;;;;5.15;2.30;;;;;;;42.57;20.68;98315.31;5013780;28;20080;-49
2023/06/11 10:47:46;;;;;;;8.05;2.17;;;;;;;43.21;20.11;98309.63;4998480;28;20032;-48
2023/06/11 10:50:17;;;;;;;3.95;2.10;;;;;;;43.57;19.26;98317.06;5017667;28;20029;-49
2023/06/11 10:52:54;;;;;;;8.02;2.50;;;;;;;43.44;19.77;98308.69;5035456;28;20023;-49
2023/06/11 10:55:21;;;;;;;3.72;1.88;;;;;;;42.82;19.97;98309.28;5017623;28;20029;-49
2023/06/11 10:57:57;;;;;;;5.35;2.50;;;;;;;41.38;21.57;98316.56;5035382;28;20574;-48
2023/06/11 11:00:24;;;;;;;8.15;2.50;;;;;;;40.21;22.83;98314.84;5017569;28;20030;-48
2023/06/11 11:02:53;;;;;;;8.43;3.35;;;;;;;40.31;23.31;98318.69;5032004;28;20046;-48
2023/06/11 11:05:19;;;;;;;5.75;2.70;;;;;;;40.52;22.71;98320.41;4997734;28;20116;-48
2023/06/11 11:07:45;;;;;;;7.60;3.00;;;;;;;39.76;23.15;98317.56;4997760;28;20034;-48
2023/06/11 11:10:19;;;;;;;3.88;2.30;;;;;;;39.09;24.13;98314.88;4997678;28;20065;-49
2023/06/11 11:12:48;;;;;;;5.90;2.35;;;;;;;40.01;23.54;98308.38;5015411;28;20077;-49
2023/06/11 11:15:14;;;;;;;4.85;2.33;;;;;;;40.92;22.56;98291.22;4997689;28;20067;-48
2023/06/11 11:17:41;;;;;;;6.97;2.30;;;;;;;41.88;21.40;98293.72;4997656;28;20053;-49
2023/06/11 11:20:08;;;;;;;10.02;2.47;;;;;;;41.86;20.34;98292.56;5015350;28;20030;-48
2023/06/11 11:22:35;;;;;;;9.52;2.80;;;;;;;41.06;21.32;98286.72;4981335;28;20022;-49
2023/06/11 11:25:02;;;;;;;5.65;2.53;;;;;;;41.09;21.31;98291.38;4997411;28;20423;-48
2023/06/11 11:27:28;;;;;;;8.98;2.38;;;;;;;41.72;20.67;98290.84;4997429;28;20109;-49
2023/06/11 11:29:57;;;;;;;5.70;2.78;;;;;;;42.23;20.09;98274.94;5014993;28;20559;-48